sensor_id;sensor_type;location;lat;lon;timestamp;temperature;humidity
37460;DHT22;23318;50.966;5.284;2023-02-04T00:00:53;9.50;99.90
37460;DHT22;23318;50.966;5.284;2023-02-04T00:03:19;9.40;99.90
37460;DHT22;23318;50.966;5.284;2023-02-04T00:05:45;9.00;99.90
37460;DHT22;23318;50.966;5.284;2023-02-04T00:08:10;8.90;99.90
37460;DHT22;23318;50.966;5.284;2023-02-04T00:10:36;8.80;99.90
37460;DHT22;23318;50.966;5.284;2023-02-04T00:13:05;8.80;99.90
37460;DHT22;23318;50.966;5.284;2023-02-04T00:15:31;8.90;99.90
37460;DHT22;23318;50.966;5.284;2023-02-04T00:17:56;9.00;99.90
37460;DHT22;23318;50.966;5.284;2023-02-04T00:20:22;9.00;99.90
37460;DHT22;23318;50.966;5.284;2023-02-04T00:22:48;9.10;99.90
37460;DHT22;23318;50.966;5.284;2023-02-04T00:25:14;9.20;99.90
37460;DHT22;23318;50.966;5.284;2023-02-04T00:27:39;9.20;99.90
37460;DHT22;23318;50.966;5.284;2023-02-04T00:30:06;9.10;99.90
37460;DHT22;23318;50.966;5.284;2023-02-04T00:32:32;9.30;99.90
37460;DHT22;23318;50.966;5.284;2023-02-04T00:34:58;9.50;99.90
37460;DHT22;23318;50.966;5.284;2023-02-04T00:37:24;9.50;99.90
37460;DHT22;23318;50.966;5.284;2023-02-04T00:39:49;9.50;99.90
37460;DHT22;23318;50.966;5.284;2023-02-04T00:42:15;9.50;99.90
37460;DHT22;23318;50.966;5.284;2023-02-04T00:44:41;9.30;99.90
37460;DHT22;23318;50.966;5.284;2023-02-04T00:47:07;9.40;99.90
37460;DHT22;23318;50.966;5.284;2023-02-04T00:49:33;9.20;99.90
37460;DHT22;23318;50.966;5.284;2023-02-04T00:51:59;9.30;99.90
37460;DHT22;23318;50.966;5.284;2023-02-04T00:54:24;9.20;99.90
37460;DHT22;23318;50.966;5.284;2023-02-04T00:56:50;9.20;99.90
37460;DHT22;23318;50.966;5.284;2023-02-04T00:59:16;9.20;99.90
37460;DHT22;23318;50.966;5.284;2023-02-04T01:01:41;9.00;99.90
37460;DHT22;23318;50.966;5.284;2023-02-04T01:04:07;9.20;99.90
37460;DHT22;23318;50.966;5.284;2023-02-04T01:06:33;9.20;99.90
37460;DHT22;23318;50.966;5.284;2023-02-04T01:08:59;9.20;99.90
37460;DHT22;23318;50.966;5.284;2023-02-04T01:11:26;9.20;99.90
37460;DHT22;23318;50.966;5.284;2023-02-04T01:13:52;9.30;99.90
37460;DHT22;23318;50.966;5.284;2023-02-04T01:16:18;9.40;99.90
37460;DHT22;23318;50.966;5.284;2023-02-04T01:18:44;9.20;99.90
37460;DHT22;23318;50.966;5.284;2023-02-04T01:21:10;9.10;99.90
37460;DHT22;23318;50.966;5.284;2023-02-04T01:23:35;9.10;99.90
37460;DHT22;23318;50.966;5.284;2023-02-04T01:26:02;9.10;99.90
37460;DHT22;23318;50.966;5.284;2023-02-04T01:28:27;9.20;99.90
37460;DHT22;23318;50.966;5.284;2023-02-04T01:30:53;9.20;99.90
37460;DHT22;23318;50.966;5.284;2023-02-04T01:33:19;8.90;99.90
37460;DHT22;23318;50.966;5.284;2023-02-04T01:35:44;8.90;99.90
37460;DHT22;23318;50.966;5.284;2023-02-04T01:38:10;9.10;99.90
37460;DHT22;23318;50.966;5.284;2023-02-04T01:40:36;9.10;99.90
37460;DHT22;23318;50.966;5.284;2023-02-04T01:43:02;8.90;99.90
37460;DHT22;23318;50.966;5.284;2023-02-04T01:45:28;9.00;99.90
37460;DHT22;23318;50.966;5.284;2023-02-04T01:47:55;9.00;99.90
37460;DHT22;23318;50.966;5.284;2023-02-04T01:50:21;8.60;99.90
37460;DHT22;23318;50.966;5.284;2023-02-04T01:52:47;8.50;99.90
37460;DHT22;23318;50.966;5.284;2023-02-04T01:55:15;8.50;99.90
37460;DHT22;23318;50.966;5.284;2023-02-04T01:57:41;8.80;99.90
37460;DHT22;23318;50.966;5.284;2023-02-04T02:00:21;8.80;99.90
37460;DHT22;23318;50.966;5.284;2023-02-04T02:02:50;8.70;99.90
37460;DHT22;23318;50.966;5.284;2023-02-04T02:05:19;8.90;99.90
37460;DHT22;23318;50.966;5.284;2023-02-04T02:07:50;8.90;99.90
37460;DHT22;23318;50.966;5.284;2023-02-04T02:10:17;8.60;99.90
37460;DHT22;23318;50.966;5.284;2023-02-04T02:12:44;8.40;99.90
37460;DHT22;23318;50.966;5.284;2023-02-04T02:15:11;8.50;99.90
37460;DHT22;23318;50.966;5.284;2023-02-04T02:17:38;8.50;99.90
37460;DHT22;23318;50.966;5.284;2023-02-04T02:20:09;8.30;99.90
37460;DHT22;23318;50.966;5.284;2023-02-04T02:25:20;8.10;99.90
37460;DHT22;23318;50.966;5.284;2023-02-04T02:27:46;8.20;99.90
37460;DHT22;23318;50.966;5.284;2023-02-04T02:30:13;8.40;99.90
37460;DHT22;23318;50.966;5.284;2023-02-04T02:32:43;8.30;99.90
37460;DHT22;23318;50.966;5.284;2023-02-04T02:35:10;8.10;99.90
37460;DHT22;23318;50.966;5.284;2023-02-04T02:37:36;7.80;99.90
37460;DHT22;23318;50.966;5.284;2023-02-04T02:40:02;7.80;99.90
37460;DHT22;23318;50.966;5.284;2023-02-04T02:42:29;7.70;99.90
37460;DHT22;23318;50.966;5.284;2023-02-04T02:44:55;7.80;99.90
37460;DHT22;23318;50.966;5.284;2023-02-04T02:47:22;8.10;99.90
37460;DHT22;23318;50.966;5.284;2023-02-04T02:49:50;8.20;99.90
37460;DHT22;23318;50.966;5.284;2023-02-04T02:52:17;7.90;99.90
37460;DHT22;23318;50.966;5.284;2023-02-04T02:54:43;8.10;99.90
37460;DHT22;23318;50.966;5.284;2023-02-04T02:57:18;8.50;99.90
37460;DHT22;23318;50.966;5.284;2023-02-04T02:59:45;8.40;99.90
37460;DHT22;23318;50.966;5.284;2023-02-04T03:02:12;8.30;99.90
37460;DHT22;23318;50.966;5.284;2023-02-04T03:04:45;8.10;99.90
37460;DHT22;23318;50.966;5.284;2023-02-04T03:07:12;8.10;99.90
37460;DHT22;23318;50.966;5.284;2023-02-04T03:09:38;8.10;99.90
37460;DHT22;23318;50.966;5.284;2023-02-04T03:12:05;8.70;99.90
37460;DHT22;23318;50.966;5.284;2023-02-04T03:14:31;9.00;99.90
37460;DHT22;23318;50.966;5.284;2023-02-04T03:16:59;9.20;99.90
37460;DHT22;23318;50.966;5.284;2023-02-04T03:19:26;9.30;99.90
37460;DHT22;23318;50.966;5.284;2023-02-04T03:21:53;8.70;99.90
37460;DHT22;23318;50.966;5.284;2023-02-04T03:24:21;8.10;99.90
37460;DHT22;23318;50.966;5.284;2023-02-04T03:26:47;8.30;99.90
37460;DHT22;23318;50.966;5.284;2023-02-04T03:29:13;8.50;99.90
37460;DHT22;23318;50.966;5.284;2023-02-04T03:31:39;8.90;99.90
37460;DHT22;23318;50.966;5.284;2023-02-04T03:34:05;9.10;99.90
37460;DHT22;23318;50.966;5.284;2023-02-04T03:36:30;9.20;99.90
37460;DHT22;23318;50.966;5.284;2023-02-04T03:38:57;9.30;99.90
37460;DHT22;23318;50.966;5.284;2023-02-04T03:41:22;9.00;99.90
37460;DHT22;23318;50.966;5.284;2023-02-04T03:43:48;9.10;99.90
37460;DHT22;23318;50.966;5.284;2023-02-04T03:46:14;9.20;99.90
37460;DHT22;23318;50.966;5.284;2023-02-04T03:48:39;9.20;99.90
37460;DHT22;23318;50.966;5.284;2023-02-04T03:51:05;9.20;99.90
37460;DHT22;23318;50.966;5.284;2023-02-04T03:53:31;8.90;99.90
37460;DHT22;23318;50.966;5.284;2023-02-04T03:55:57;8.40;99.90
37460;DHT22;23318;50.966;5.284;2023-02-04T03:58:22;8.70;99.90
37460;DHT22;23318;50.966;5.284;2023-02-04T04:00:48;8.90;99.90
37460;DHT22;23318;50.966;5.284;2023-02-04T04:03:14;9.00;99.90
37460;DHT22;23318;50.966;5.284;2023-02-04T04:05:40;8.90;99.90
37460;DHT22;23318;50.966;5.284;2023-02-04T04:08:06;9.00;99.90
37460;DHT22;23318;50.966;5.284;2023-02-04T04:10:31;8.70;99.90
37460;DHT22;23318;50.966;5.284;2023-02-04T04:12:57;8.70;99.90
37460;DHT22;23318;50.966;5.284;2023-02-04T04:15:23;8.80;99.90
37460;DHT22;23318;50.966;5.284;2023-02-04T04:17:50;8.80;99.90
37460;DHT22;23318;50.966;5.284;2023-02-04T04:20:16;8.90;99.90
37460;DHT22;23318;50.966;5.284;2023-02-04T04:22:42;8.80;99.90
37460;DHT22;23318;50.966;5.284;2023-02-04T04:25:08;8.90;99.90
37460;DHT22;23318;50.966;5.284;2023-02-04T04:27:34;8.80;99.90
37460;DHT22;23318;50.966;5.284;2023-02-04T04:29:59;8.60;99.90
37460;DHT22;23318;50.966;5.284;2023-02-04T04:32:25;8.40;99.90
37460;DHT22;23318;50.966;5.284;2023-02-04T04:34:51;8.10;99.90
37460;DHT22;23318;50.966;5.284;2023-02-04T04:37:17;8.20;99.90
37460;DHT22;23318;50.966;5.284;2023-02-04T04:39:42;8.30;99.90
37460;DHT22;23318;50.966;5.284;2023-02-04T04:42:08;8.40;99.90
37460;DHT22;23318;50.966;5.284;2023-02-04T04:44:34;8.50;99.90
37460;DHT22;23318;50.966;5.284;2023-02-04T04:46:59;8.50;99.90
37460;DHT22;23318;50.966;5.284;2023-02-04T04:49:25;8.40;99.90
37460;DHT22;23318;50.966;5.284;2023-02-04T04:51:51;8.30;99.90
37460;DHT22;23318;50.966;5.284;2023-02-04T04:54:16;8.40;99.90
37460;DHT22;23318;50.966;5.284;2023-02-04T04:56:42;8.30;99.90
37460;DHT22;23318;50.966;5.284;2023-02-04T04:59:08;8.50;99.90
37460;DHT22;23318;50.966;5.284;2023-02-04T05:01:34;8.40;99.90
37460;DHT22;23318;50.966;5.284;2023-02-04T05:04:00;8.40;99.90
37460;DHT22;23318;50.966;5.284;2023-02-04T05:06:25;8.40;99.90
37460;DHT22;23318;50.966;5.284;2023-02-04T05:08:51;8.30;99.90
37460;DHT22;23318;50.966;5.284;2023-02-04T05:11:17;8.30;99.90
37460;DHT22;23318;50.966;5.284;2023-02-04T05:13:43;8.30;99.90
37460;DHT22;23318;50.966;5.284;2023-02-04T05:16:09;8.30;99.90
37460;DHT22;23318;50.966;5.284;2023-02-04T05:18:38;8.20;99.90
37460;DHT22;23318;50.966;5.284;2023-02-04T05:21:04;8.20;99.90
37460;DHT22;23318;50.966;5.284;2023-02-04T05:23:30;8.20;99.90
37460;DHT22;23318;50.966;5.284;2023-02-04T05:25:55;8.20;99.90
37460;DHT22;23318;50.966;5.284;2023-02-04T05:28:21;8.30;99.90
37460;DHT22;23318;50.966;5.284;2023-02-04T05:30:47;8.30;99.90
37460;DHT22;23318;50.966;5.284;2023-02-04T05:33:12;8.30;99.90
37460;DHT22;23318;50.966;5.284;2023-02-04T05:35:38;8.30;99.90
37460;DHT22;23318;50.966;5.284;2023-02-04T05:38:04;8.30;99.90
37460;DHT22;23318;50.966;5.284;2023-02-04T05:40:30;8.10;99.90
37460;DHT22;23318;50.966;5.284;2023-02-04T05:42:55;8.20;99.90
37460;DHT22;23318;50.966;5.284;2023-02-04T05:45:21;8.30;99.90
37460;DHT22;23318;50.966;5.284;2023-02-04T05:47:46;8.50;99.90
37460;DHT22;23318;50.966;5.284;2023-02-04T05:50:13;8.50;99.90
37460;DHT22;23318;50.966;5.284;2023-02-04T05:52:39;8.60;99.90
37460;DHT22;23318;50.966;5.284;2023-02-04T05:55:06;8.60;99.90
37460;DHT22;23318;50.966;5.284;2023-02-04T05:57:32;8.50;99.90
37460;DHT22;23318;50.966;5.284;2023-02-04T05:59:57;8.30;99.90
37460;DHT22;23318;50.966;5.284;2023-02-04T06:02:23;8.20;99.90
37460;DHT22;23318;50.966;5.284;2023-02-04T06:04:49;8.20;99.90
37460;DHT22;23318;50.966;5.284;2023-02-04T06:07:15;8.40;99.90
37460;DHT22;23318;50.966;5.284;2023-02-04T06:09:40;8.50;99.90
37460;DHT22;23318;50.966;5.284;2023-02-04T06:12:06;8.50;99.90
37460;DHT22;23318;50.966;5.284;2023-02-04T06:14:32;8.50;99.90
37460;DHT22;23318;50.966;5.284;2023-02-04T06:16:57;8.40;99.90
37460;DHT22;23318;50.966;5.284;2023-02-04T06:19:24;8.30;99.90
37460;DHT22;23318;50.966;5.284;2023-02-04T06:21:49;8.40;99.90
37460;DHT22;23318;50.966;5.284;2023-02-04T06:24:15;8.40;99.90
37460;DHT22;23318;50.966;5.284;2023-02-04T06:26:41;8.40;99.90
37460;DHT22;23318;50.966;5.284;2023-02-04T06:29:06;8.40;99.90
37460;DHT22;23318;50.966;5.284;2023-02-04T06:31:32;8.30;99.90
37460;DHT22;23318;50.966;5.284;2023-02-04T06:33:58;8.10;99.90
37460;DHT22;23318;50.966;5.284;2023-02-04T06:36:24;8.10;99.90
37460;DHT22;23318;50.966;5.284;2023-02-04T06:38:49;8.20;99.90
37460;DHT22;23318;50.966;5.284;2023-02-04T06:41:15;8.30;99.90
37460;DHT22;23318;50.966;5.284;2023-02-04T06:43:40;8.30;99.90
37460;DHT22;23318;50.966;5.284;2023-02-04T06:46:06;8.30;99.90
37460;DHT22;23318;50.966;5.284;2023-02-04T06:48:32;8.30;99.90
37460;DHT22;23318;50.966;5.284;2023-02-04T06:50:58;8.20;99.90
37460;DHT22;23318;50.966;5.284;2023-02-04T06:53:23;7.30;99.90
37460;DHT22;23318;50.966;5.284;2023-02-04T06:55:49;7.30;99.90
37460;DHT22;23318;50.966;5.284;2023-02-04T06:58:14;7.60;99.90
37460;DHT22;23318;50.966;5.284;2023-02-04T07:00:40;7.70;99.90
37460;DHT22;23318;50.966;5.284;2023-02-04T07:03:06;7.50;99.90
37460;DHT22;23318;50.966;5.284;2023-02-04T07:05:32;7.80;99.90
37460;DHT22;23318;50.966;5.284;2023-02-04T07:07:58;7.90;99.90
37460;DHT22;23318;50.966;5.284;2023-02-04T07:10:23;7.90;99.90
37460;DHT22;23318;50.966;5.284;2023-02-04T07:12:49;8.10;99.90
37460;DHT22;23318;50.966;5.284;2023-02-04T07:15:15;8.40;99.90
37460;DHT22;23318;50.966;5.284;2023-02-04T07:17:41;8.10;99.90
37460;DHT22;23318;50.966;5.284;2023-02-04T07:20:07;8.40;99.90
37460;DHT22;23318;50.966;5.284;2023-02-04T07:22:33;8.70;99.90
37460;DHT22;23318;50.966;5.284;2023-02-04T07:24:59;8.80;99.90
37460;DHT22;23318;50.966;5.284;2023-02-04T07:27:24;8.80;99.90
37460;DHT22;23318;50.966;5.284;2023-02-04T07:29:50;8.70;99.90
37460;DHT22;23318;50.966;5.284;2023-02-04T07:32:16;8.70;99.90
37460;DHT22;23318;50.966;5.284;2023-02-04T07:34:41;8.60;99.90
37460;DHT22;23318;50.966;5.284;2023-02-04T07:37:07;8.60;99.90
37460;DHT22;23318;50.966;5.284;2023-02-04T07:39:33;8.60;99.90
37460;DHT22;23318;50.966;5.284;2023-02-04T07:41:58;8.60;99.90
37460;DHT22;23318;50.966;5.284;2023-02-04T07:44:24;8.70;99.90
37460;DHT22;23318;50.966;5.284;2023-02-04T07:46:50;8.80;99.90
37460;DHT22;23318;50.966;5.284;2023-02-04T07:49:15;8.70;99.90
37460;DHT22;23318;50.966;5.284;2023-02-04T07:51:41;8.60;99.90
37460;DHT22;23318;50.966;5.284;2023-02-04T07:54:06;8.80;99.90
37460;DHT22;23318;50.966;5.284;2023-02-04T07:56:32;8.90;99.90
37460;DHT22;23318;50.966;5.284;2023-02-04T07:58:58;9.00;99.90
37460;DHT22;23318;50.966;5.284;2023-02-04T08:01:23;8.90;99.90
37460;DHT22;23318;50.966;5.284;2023-02-04T08:03:49;8.90;99.90
37460;DHT22;23318;50.966;5.284;2023-02-04T08:06:15;8.90;99.90
37460;DHT22;23318;50.966;5.284;2023-02-04T08:08:40;8.40;99.90
37460;DHT22;23318;50.966;5.284;2023-02-04T08:11:06;7.90;99.90
37460;DHT22;23318;50.966;5.284;2023-02-04T08:13:32;7.60;99.90
37460;DHT22;23318;50.966;5.284;2023-02-04T08:15:57;7.90;99.90
37460;DHT22;23318;50.966;5.284;2023-02-04T08:18:23;7.70;99.90
37460;DHT22;23318;50.966;5.284;2023-02-04T08:20:52;7.90;99.90
37460;DHT22;23318;50.966;5.284;2023-02-04T08:23:17;7.90;99.90
37460;DHT22;23318;50.966;5.284;2023-02-04T08:25:43;8.30;99.90
37460;DHT22;23318;50.966;5.284;2023-02-04T08:28:10;8.90;99.90
37460;DHT22;23318;50.966;5.284;2023-02-04T08:30:35;8.90;99.90
37460;DHT22;23318;50.966;5.284;2023-02-04T08:33:01;8.60;99.90
37460;DHT22;23318;50.966;5.284;2023-02-04T08:35:27;9.20;99.90
37460;DHT22;23318;50.966;5.284;2023-02-04T08:37:52;9.60;99.90
37460;DHT22;23318;50.966;5.284;2023-02-04T08:40:18;9.90;99.90
37460;DHT22;23318;50.966;5.284;2023-02-04T08:42:44;10.10;99.90
37460;DHT22;23318;50.966;5.284;2023-02-04T08:45:10;10.10;99.90
37460;DHT22;23318;50.966;5.284;2023-02-04T08:47:35;10.20;99.90
37460;DHT22;23318;50.966;5.284;2023-02-04T08:50:01;10.40;99.90
37460;DHT22;23318;50.966;5.284;2023-02-04T08:52:27;10.40;99.90
37460;DHT22;23318;50.966;5.284;2023-02-04T08:54:52;10.50;99.90
37460;DHT22;23318;50.966;5.284;2023-02-04T08:57:18;10.40;99.90
37460;DHT22;23318;50.966;5.284;2023-02-04T08:59:44;10.40;99.90
37460;DHT22;23318;50.966;5.284;2023-02-04T09:02:10;10.40;99.90
37460;DHT22;23318;50.966;5.284;2023-02-04T09:04:35;10.40;99.90
37460;DHT22;23318;50.966;5.284;2023-02-04T09:07:01;10.30;99.90
37460;DHT22;23318;50.966;5.284;2023-02-04T09:09:27;10.10;99.90
37460;DHT22;23318;50.966;5.284;2023-02-04T09:11:53;10.50;99.90
37460;DHT22;23318;50.966;5.284;2023-02-04T09:14:18;10.70;99.90
37460;DHT22;23318;50.966;5.284;2023-02-04T09:16:44;11.00;99.90
37460;DHT22;23318;50.966;5.284;2023-02-04T09:19:10;11.10;99.90
37460;DHT22;23318;50.966;5.284;2023-02-04T09:21:37;10.90;99.90
37460;DHT22;23318;50.966;5.284;2023-02-04T09:24:03;11.10;99.90
37460;DHT22;23318;50.966;5.284;2023-02-04T09:26:28;11.00;99.90
37460;DHT22;23318;50.966;5.284;2023-02-04T09:28:54;11.30;99.90
37460;DHT22;23318;50.966;5.284;2023-02-04T09:31:20;11.40;99.90
37460;DHT22;23318;50.966;5.284;2023-02-04T09:33:45;11.60;99.90
37460;DHT22;23318;50.966;5.284;2023-02-04T09:36:11;11.70;99.90
37460;DHT22;23318;50.966;5.284;2023-02-04T09:38:37;11.80;99.90
37460;DHT22;23318;50.966;5.284;2023-02-04T09:41:06;11.80;99.90
37460;DHT22;23318;50.966;5.284;2023-02-04T09:43:38;11.80;99.90
37460;DHT22;23318;50.966;5.284;2023-02-04T09:46:06;11.60;99.90
37460;DHT22;23318;50.966;5.284;2023-02-04T09:48:32;11.60;99.90
37460;DHT22;23318;50.966;5.284;2023-02-04T09:51:06;11.60;99.90
37460;DHT22;23318;50.966;5.284;2023-02-04T09:53:33;11.70;99.90
37460;DHT22;23318;50.966;5.284;2023-02-04T09:55:59;11.70;99.90
37460;DHT22;23318;50.966;5.284;2023-02-04T09:58:28;11.80;99.90
37460;DHT22;23318;50.966;5.284;2023-02-04T10:00:59;11.70;99.90
37460;DHT22;23318;50.966;5.284;2023-02-04T10:03:26;11.60;99.90
37460;DHT22;23318;50.966;5.284;2023-02-04T10:05:52;11.60;99.90
37460;DHT22;23318;50.966;5.284;2023-02-04T10:08:19;11.60;99.90
37460;DHT22;23318;50.966;5.284;2023-02-04T10:10:47;11.50;99.90
37460;DHT22;23318;50.966;5.284;2023-02-04T10:13:35;11.60;99.90
37460;DHT22;23318;50.966;5.284;2023-02-04T10:16:07;11.70;99.90
37460;DHT22;23318;50.966;5.284;2023-02-04T10:18:35;11.70;99.90
37460;DHT22;23318;50.966;5.284;2023-02-04T10:21:15;11.70;99.90
37460;DHT22;23318;50.966;5.284;2023-02-04T10:23:43;11.70;99.90
37460;DHT22;23318;50.966;5.284;2023-02-04T10:26:14;11.80;99.90
37460;DHT22;23318;50.966;5.284;2023-02-04T10:28:40;11.70;99.90
37460;DHT22;23318;50.966;5.284;2023-02-04T10:31:38;11.80;99.90
37460;DHT22;23318;50.966;5.284;2023-02-04T10:34:30;12.00;99.90
37460;DHT22;23318;50.966;5.284;2023-02-04T10:36:56;12.10;99.90
37460;DHT22;23318;50.966;5.284;2023-02-04T10:39:27;11.90;99.90
37460;DHT22;23318;50.966;5.284;2023-02-04T10:41:58;11.90;99.90
37460;DHT22;23318;50.966;5.284;2023-02-04T10:44:32;11.40;99.90
37460;DHT22;23318;50.966;5.284;2023-02-04T10:47:00;11.70;99.90
37460;DHT22;23318;50.966;5.284;2023-02-04T10:49:27;12.00;99.90
37460;DHT22;23318;50.966;5.284;2023-02-04T10:51:52;12.20;99.90
37460;DHT22;23318;50.966;5.284;2023-02-04T10:54:20;12.30;99.90
37460;DHT22;23318;50.966;5.284;2023-02-04T10:57:28;12.40;99.90
37460;DHT22;23318;50.966;5.284;2023-02-04T10:59:59;12.60;99.90
37460;DHT22;23318;50.966;5.284;2023-02-04T11:05:00;12.60;99.90
37460;DHT22;23318;50.966;5.284;2023-02-04T11:07:26;12.30;99.90
37460;DHT22;23318;50.966;5.284;2023-02-04T11:09:52;12.10;99.90
37460;DHT22;23318;50.966;5.284;2023-02-04T11:12:36;12.20;99.90
37460;DHT22;23318;50.966;5.284;2023-02-04T11:15:02;12.20;99.90
37460;DHT22;23318;50.966;5.284;2023-02-04T11:17:29;12.30;99.90
37460;DHT22;23318;50.966;5.284;2023-02-04T11:19:56;12.00;99.90
37460;DHT22;23318;50.966;5.284;2023-02-04T11:22:34;11.80;99.90
37460;DHT22;23318;50.966;5.284;2023-02-04T11:25:01;11.60;99.90
37460;DHT22;23318;50.966;5.284;2023-02-04T11:27:38;11.40;99.90
37460;DHT22;23318;50.966;5.284;2023-02-04T11:30:19;10.80;99.90
37460;DHT22;23318;50.966;5.284;2023-02-04T11:32:59;10.40;99.90
37460;DHT22;23318;50.966;5.284;2023-02-04T11:35:27;10.60;99.90
37460;DHT22;23318;50.966;5.284;2023-02-04T11:37:54;11.10;99.90
37460;DHT22;23318;50.966;5.284;2023-02-04T11:40:34;11.70;99.90
37460;DHT22;23318;50.966;5.284;2023-02-04T11:43:02;12.10;99.90
37460;DHT22;23318;50.966;5.284;2023-02-04T11:45:31;12.40;99.90
37460;DHT22;23318;50.966;5.284;2023-02-04T11:48:00;12.60;99.90
37460;DHT22;23318;50.966;5.284;2023-02-04T11:50:33;12.70;99.90
37460;DHT22;23318;50.966;5.284;2023-02-04T11:53:03;12.60;99.90
37460;DHT22;23318;50.966;5.284;2023-02-04T11:55:35;12.70;99.90
37460;DHT22;23318;50.966;5.284;2023-02-04T11:58:02;12.70;99.90
37460;DHT22;23318;50.966;5.284;2023-02-04T12:00:30;12.50;99.90
37460;DHT22;23318;50.966;5.284;2023-02-04T12:03:01;12.30;99.90
37460;DHT22;23318;50.966;5.284;2023-02-04T12:05:44;12.00;99.90
37460;DHT22;23318;50.966;5.284;2023-02-04T12:13:29;11.50;99.90
37460;DHT22;23318;50.966;5.284;2023-02-04T12:18:32;11.30;99.90
37460;DHT22;23318;50.966;5.284;2023-02-04T12:20:59;11.40;99.90
37460;DHT22;23318;50.966;5.284;2023-02-04T12:23:26;11.30;99.90
37460;DHT22;23318;50.966;5.284;2023-02-04T12:25:53;11.10;99.90
37460;DHT22;23318;50.966;5.284;2023-02-04T12:28:19;11.10;99.90
37460;DHT22;23318;50.966;5.284;2023-02-04T12:30:44;11.10;99.90
37460;DHT22;23318;50.966;5.284;2023-02-04T12:33:10;11.10;99.90
37460;DHT22;23318;50.966;5.284;2023-02-04T12:35:36;11.20;99.90
37460;DHT22;23318;50.966;5.284;2023-02-04T12:38:02;11.20;99.90
37460;DHT22;23318;50.966;5.284;2023-02-04T12:40:28;11.30;99.90
37460;DHT22;23318;50.966;5.284;2023-02-04T12:42:54;11.40;99.90
37460;DHT22;23318;50.966;5.284;2023-02-04T12:45:20;11.40;99.90
37460;DHT22;23318;50.966;5.284;2023-02-04T12:47:46;11.50;99.90
37460;DHT22;23318;50.966;5.284;2023-02-04T12:50:14;11.40;99.90
37460;DHT22;23318;50.966;5.284;2023-02-04T12:52:50;11.40;99.90
37460;DHT22;23318;50.966;5.284;2023-02-04T12:55:16;11.40;99.90
37460;DHT22;23318;50.966;5.284;2023-02-04T12:57:43;11.50;99.90
37460;DHT22;23318;50.966;5.284;2023-02-04T13:00:09;11.50;99.90
37460;DHT22;23318;50.966;5.284;2023-02-04T13:02:35;11.60;99.90
37460;DHT22;23318;50.966;5.284;2023-02-04T13:05:01;11.50;99.90
37460;DHT22;23318;50.966;5.284;2023-02-04T13:07:26;11.60;99.90
37460;DHT22;23318;50.966;5.284;2023-02-04T13:09:52;11.80;99.90
37460;DHT22;23318;50.966;5.284;2023-02-04T13:12:18;11.70;99.90
37460;DHT22;23318;50.966;5.284;2023-02-04T13:14:44;11.90;99.90
37460;DHT22;23318;50.966;5.284;2023-02-04T13:17:10;12.20;99.90
37460;DHT22;23318;50.966;5.284;2023-02-04T13:19:36;11.60;99.90
37460;DHT22;23318;50.966;5.284;2023-02-04T13:22:02;11.10;99.90
37460;DHT22;23318;50.966;5.284;2023-02-04T13:24:28;11.40;99.90
37460;DHT22;23318;50.966;5.284;2023-02-04T13:26:54;11.80;99.90
37460;DHT22;23318;50.966;5.284;2023-02-04T13:29:20;11.50;99.90
37460;DHT22;23318;50.966;5.284;2023-02-04T13:31:47;11.60;99.90
37460;DHT22;23318;50.966;5.284;2023-02-04T13:34:12;11.90;99.90
37460;DHT22;23318;50.966;5.284;2023-02-04T13:36:38;11.60;99.90
37460;DHT22;23318;50.966;5.284;2023-02-04T13:39:04;10.80;99.90
37460;DHT22;23318;50.966;5.284;2023-02-04T13:41:30;10.40;99.90
37460;DHT22;23318;50.966;5.284;2023-02-04T13:43:56;9.90;99.90
37460;DHT22;23318;50.966;5.284;2023-02-04T13:46:23;10.50;99.90
37460;DHT22;23318;50.966;5.284;2023-02-04T13:48:49;10.50;99.90
37460;DHT22;23318;50.966;5.284;2023-02-04T13:51:15;10.70;99.90
37460;DHT22;23318;50.966;5.284;2023-02-04T13:53:41;10.40;99.90
37460;DHT22;23318;50.966;5.284;2023-02-04T13:56:07;10.40;99.90
37460;DHT22;23318;50.966;5.284;2023-02-04T13:58:33;10.10;99.90
37460;DHT22;23318;50.966;5.284;2023-02-04T14:00:59;10.30;99.90
37460;DHT22;23318;50.966;5.284;2023-02-04T14:03:26;10.60;99.90
37460;DHT22;23318;50.966;5.284;2023-02-04T14:05:53;10.40;99.90
37460;DHT22;23318;50.966;5.284;2023-02-04T14:08:20;10.10;99.90
37460;DHT22;23318;50.966;5.284;2023-02-04T14:10:45;9.80;99.90
37460;DHT22;23318;50.966;5.284;2023-02-04T14:13:11;9.70;99.90
37460;DHT22;23318;50.966;5.284;2023-02-04T14:15:37;9.90;99.90
37460;DHT22;23318;50.966;5.284;2023-02-04T14:18:05;10.10;99.90
37460;DHT22;23318;50.966;5.284;2023-02-04T14:20:31;10.10;99.90
37460;DHT22;23318;50.966;5.284;2023-02-04T14:22:56;9.90;99.90
37460;DHT22;23318;50.966;5.284;2023-02-04T14:25:22;9.90;99.90
37460;DHT22;23318;50.966;5.284;2023-02-04T14:27:48;10.20;99.90
37460;DHT22;23318;50.966;5.284;2023-02-04T14:30:19;10.30;99.90
37460;DHT22;23318;50.966;5.284;2023-02-04T14:32:45;10.40;99.90
37460;DHT22;23318;50.966;5.284;2023-02-04T14:35:12;10.10;99.90
37460;DHT22;23318;50.966;5.284;2023-02-04T14:37:37;10.50;99.90
37460;DHT22;23318;50.966;5.284;2023-02-04T14:40:04;10.80;99.90
37460;DHT22;23318;50.966;5.284;2023-02-04T14:42:30;10.90;99.90
37460;DHT22;23318;50.966;5.284;2023-02-04T14:44:55;10.80;99.90
37460;DHT22;23318;50.966;5.284;2023-02-04T14:47:21;11.10;99.90
37460;DHT22;23318;50.966;5.284;2023-02-04T14:49:47;11.20;99.90
37460;DHT22;23318;50.966;5.284;2023-02-04T14:52:12;10.90;99.90
37460;DHT22;23318;50.966;5.284;2023-02-04T14:54:39;10.90;99.90
37460;DHT22;23318;50.966;5.284;2023-02-04T14:57:05;10.60;99.90
37460;DHT22;23318;50.966;5.284;2023-02-04T14:59:31;10.40;99.90
37460;DHT22;23318;50.966;5.284;2023-02-04T15:01:56;10.80;99.90
37460;DHT22;23318;50.966;5.284;2023-02-04T15:04:22;10.90;99.90
37460;DHT22;23318;50.966;5.284;2023-02-04T15:06:48;11.00;99.90
37460;DHT22;23318;50.966;5.284;2023-02-04T15:09:18;11.00;99.90
37460;DHT22;23318;50.966;5.284;2023-02-04T15:11:43;11.20;99.90
37460;DHT22;23318;50.966;5.284;2023-02-04T15:14:09;11.30;99.90
37460;DHT22;23318;50.966;5.284;2023-02-04T15:16:35;11.20;99.90
37460;DHT22;23318;50.966;5.284;2023-02-04T15:19:00;11.20;99.90
37460;DHT22;23318;50.966;5.284;2023-02-04T15:21:26;11.10;99.90
37460;DHT22;23318;50.966;5.284;2023-02-04T15:23:52;11.10;99.90
37460;DHT22;23318;50.966;5.284;2023-02-04T15:26:17;11.00;99.90
37460;DHT22;23318;50.966;5.284;2023-02-04T15:28:43;11.00;99.90
37460;DHT22;23318;50.966;5.284;2023-02-04T15:31:09;10.90;99.90
37460;DHT22;23318;50.966;5.284;2023-02-04T15:33:36;10.90;99.90
37460;DHT22;23318;50.966;5.284;2023-02-04T15:36:02;10.90;99.90
37460;DHT22;23318;50.966;5.284;2023-02-04T15:38:28;10.90;99.90
37460;DHT22;23318;50.966;5.284;2023-02-04T15:40:54;10.90;99.90
37460;DHT22;23318;50.966;5.284;2023-02-04T15:43:19;10.90;99.90
37460;DHT22;23318;50.966;5.284;2023-02-04T15:45:45;10.90;99.90
37460;DHT22;23318;50.966;5.284;2023-02-04T15:48:11;11.00;99.90
37460;DHT22;23318;50.966;5.284;2023-02-04T15:50:37;11.00;99.90